Hamburg Airport EDDH

Flugplatz Daten

Name: Hamburg Airport

Ident: EDDH

Lat: 53,63040161

Long: 9,988229752

Platzhöhe: 53 ft

IataCode: HAM

City: Hamburg

Metar

2021/10/25 23:50
EDDH 252350Z 22004KT 9999 BKN016 11/09 Q1016 BECMG BKN014

Taf

2021/10/25 00:27
TAF TAF EDDH 252300Z 2600/2706 23007KT 9999 BKN020
BECMG 2600/2601 BKN012
BECMG 2601/2603 BKN007 PROB40
TEMPO 2602/2608 BKN004 PROB30
TEMPO 2602/2606 4000 -RA BR
BECMG 2608/2610 BKN012
BECMG 2610/2612 BKN015
BECMG 2622/2624 BKN008 PROB30
TEMPO 2622/2624 3000 -RADZ PROB30
TEMPO 2702/2706 BKN004

Webcams

Apron
Gewünschte Webcam nicht vorhanden? Dann fügen Sie eine hinzu. Sie wird dann so schnell wie möglich freigeschaltet
Url: Title: